sensor_id;sensor_type;location;lat;lon;timestamp;P1;durP1;ratioP1;P2;durP2;ratioP2
23060;SDS011;11698;47.690;9.132;2023-06-22T00:00:50;9.88;;;5.40;;
23060;SDS011;11698;47.690;9.132;2023-06-22T00:03:20;9.45;;;5.78;;
23060;SDS011;11698;47.690;9.132;2023-06-22T00:05:46;9.43;;;6.03;;
23060;SDS011;11698;47.690;9.132;2023-06-22T00:08:13;12.10;;;5.70;;
23060;SDS011;11698;47.690;9.132;2023-06-22T00:10:39;9.98;;;5.35;;
23060;SDS011;11698;47.690;9.132;2023-06-22T00:13:05;9.40;;;5.72;;
23060;SDS011;11698;47.690;9.132;2023-06-22T00:15:32;9.93;;;5.78;;
23060;SDS011;11698;47.690;9.132;2023-06-22T00:17:58;8.97;;;5.77;;
23060;SDS011;11698;47.690;9.132;2023-06-22T00:20:25;12.05;;;6.05;;
23060;SDS011;11698;47.690;9.132;2023-06-22T00:22:55;13.03;;;6.07;;
23060;SDS011;11698;47.690;9.132;2023-06-22T00:25:22;9.38;;;5.22;;
23060;SDS011;11698;47.690;9.132;2023-06-22T00:27:48;11.07;;;6.30;;
23060;SDS011;11698;47.690;9.132;2023-06-22T00:30:17;10.52;;;5.88;;
23060;SDS011;11698;47.690;9.132;2023-06-22T00:32:44;11.68;;;6.20;;
23060;SDS011;11698;47.690;9.132;2023-06-22T00:35:11;12.90;;;5.88;;
23060;SDS011;11698;47.690;9.132;2023-06-22T00:37:37;11.20;;;5.63;;
23060;SDS011;11698;47.690;9.132;2023-06-22T00:40:07;10.38;;;5.78;;
23060;SDS011;11698;47.690;9.132;2023-06-22T00:42:34;10.05;;;6.25;;
23060;SDS011;11698;47.690;9.132;2023-06-22T00:45:00;9.60;;;5.70;;
23060;SDS011;11698;47.690;9.132;2023-06-22T00:47:26;12.33;;;6.37;;
23060;SDS011;11698;47.690;9.132;2023-06-22T00:49:52;11.00;;;6.10;;
23060;SDS011;11698;47.690;9.132;2023-06-22T00:52:21;12.25;;;6.05;;
23060;SDS011;11698;47.690;9.132;2023-06-22T00:54:52;9.73;;;6.03;;
23060;SDS011;11698;47.690;9.132;2023-06-22T00:57:18;11.65;;;6.32;;
23060;SDS011;11698;47.690;9.132;2023-06-22T00:59:44;13.70;;;6.40;;
23060;SDS011;11698;47.690;9.132;2023-06-22T01:02:11;11.85;;;6.35;;
23060;SDS011;11698;47.690;9.132;2023-06-22T01:04:38;13.07;;;6.05;;
23060;SDS011;11698;47.690;9.132;2023-06-22T01:07:08;10.50;;;5.88;;
23060;SDS011;11698;47.690;9.132;2023-06-22T01:09:41;12.98;;;5.97;;
23060;SDS011;11698;47.690;9.132;2023-06-22T01:12:07;12.18;;;5.97;;
23060;SDS011;11698;47.690;9.132;2023-06-22T01:14:38;11.55;;;5.93;;
23060;SDS011;11698;47.690;9.132;2023-06-22T01:17:06;11.60;;;5.97;;
23060;SDS011;11698;47.690;9.132;2023-06-22T01:19:46;11.38;;;5.72;;
23060;SDS011;11698;47.690;9.132;2023-06-22T01:22:15;9.95;;;5.95;;
23060;SDS011;11698;47.690;9.132;2023-06-22T01:24:55;11.35;;;6.40;;
23060;SDS011;11698;47.690;9.132;2023-06-22T01:29:56;10.68;;;6.00;;
23060;SDS011;11698;47.690;9.132;2023-06-22T01:32:28;9.27;;;5.60;;
23060;SDS011;11698;47.690;9.132;2023-06-22T01:34:55;11.25;;;5.60;;
23060;SDS011;11698;47.690;9.132;2023-06-22T01:37:21;10.88;;;5.70;;
23060;SDS011;11698;47.690;9.132;2023-06-22T01:39:48;11.50;;;5.75;;
23060;SDS011;11698;47.690;9.132;2023-06-22T01:42:14;13.88;;;6.18;;
23060;SDS011;11698;47.690;9.132;2023-06-22T01:44:40;13.77;;;5.82;;
23060;SDS011;11698;47.690;9.132;2023-06-22T01:47:06;14.60;;;5.80;;
23060;SDS011;11698;47.690;9.132;2023-06-22T01:49:32;11.68;;;6.30;;
23060;SDS011;11698;47.690;9.132;2023-06-22T01:51:58;11.25;;;6.20;;
23060;SDS011;11698;47.690;9.132;2023-06-22T01:54:25;12.33;;;5.40;;
23060;SDS011;11698;47.690;9.132;2023-06-22T01:56:51;12.18;;;5.53;;
23060;SDS011;11698;47.690;9.132;2023-06-22T02:02:02;13.23;;;5.60;;
23060;SDS011;11698;47.690;9.132;2023-06-22T02:07:15;9.63;;;5.70;;
23060;SDS011;11698;47.690;9.132;2023-06-22T02:09:43;9.32;;;5.18;;
23060;SDS011;11698;47.690;9.132;2023-06-22T02:12:10;10.55;;;5.50;;
23060;SDS011;11698;47.690;9.132;2023-06-22T02:14:37;10.35;;;5.60;;
23060;SDS011;11698;47.690;9.132;2023-06-22T02:17:03;13.05;;;5.72;;
23060;SDS011;11698;47.690;9.132;2023-06-22T02:19:32;13.55;;;5.35;;
23060;SDS011;11698;47.690;9.132;2023-06-22T02:22:01;11.48;;;5.20;;
23060;SDS011;11698;47.690;9.132;2023-06-22T02:24:27;12.98;;;5.68;;
23060;SDS011;11698;47.690;9.132;2023-06-22T02:26:56;14.52;;;5.50;;
23060;SDS011;11698;47.690;9.132;2023-06-22T02:29:23;10.60;;;5.55;;
23060;SDS011;11698;47.690;9.132;2023-06-22T02:31:49;10.07;;;6.00;;
23060;SDS011;11698;47.690;9.132;2023-06-22T02:34:15;10.93;;;5.72;;
23060;SDS011;11698;47.690;9.132;2023-06-22T02:36:46;10.52;;;5.20;;
23060;SDS011;11698;47.690;9.132;2023-06-22T02:41:44;10.30;;;5.07;;
23060;SDS011;11698;47.690;9.132;2023-06-22T02:44:10;12.05;;;5.65;;
23060;SDS011;11698;47.690;9.132;2023-06-22T02:46:36;11.27;;;5.28;;
23060;SDS011;11698;47.690;9.132;2023-06-22T02:49:02;11.70;;;5.40;;
23060;SDS011;11698;47.690;9.132;2023-06-22T02:51:29;11.48;;;5.68;;
23060;SDS011;11698;47.690;9.132;2023-06-22T02:53:56;11.83;;;5.03;;
23060;SDS011;11698;47.690;9.132;2023-06-22T02:56:23;11.20;;;5.38;;
23060;SDS011;11698;47.690;9.132;2023-06-22T02:58:50;11.88;;;5.82;;
23060;SDS011;11698;47.690;9.132;2023-06-22T03:01:16;11.88;;;4.97;;
23060;SDS011;11698;47.690;9.132;2023-06-22T03:03:49;9.75;;;5.30;;
23060;SDS011;11698;47.690;9.132;2023-06-22T03:06:15;11.25;;;5.70;;
23060;SDS011;11698;47.690;9.132;2023-06-22T03:08:41;12.00;;;5.43;;
23060;SDS011;11698;47.690;9.132;2023-06-22T03:11:07;8.30;;;5.13;;
23060;SDS011;11698;47.690;9.132;2023-06-22T03:13:33;12.70;;;5.60;;
23060;SDS011;11698;47.690;9.132;2023-06-22T03:15:59;9.70;;;5.22;;
23060;SDS011;11698;47.690;9.132;2023-06-22T03:18:25;8.65;;;5.20;;
23060;SDS011;11698;47.690;9.132;2023-06-22T03:20:51;11.00;;;5.85;;
23060;SDS011;11698;47.690;9.132;2023-06-22T03:23:17;10.07;;;5.13;;
23060;SDS011;11698;47.690;9.132;2023-06-22T03:25:43;8.55;;;5.35;;
23060;SDS011;11698;47.690;9.132;2023-06-22T03:28:10;9.88;;;5.50;;
23060;SDS011;11698;47.690;9.132;2023-06-22T03:30:36;9.82;;;5.45;;
23060;SDS011;11698;47.690;9.132;2023-06-22T03:33:02;10.77;;;5.47;;
23060;SDS011;11698;47.690;9.132;2023-06-22T03:35:28;12.48;;;5.25;;
23060;SDS011;11698;47.690;9.132;2023-06-22T03:37:54;11.88;;;5.68;;
23060;SDS011;11698;47.690;9.132;2023-06-22T03:40:20;10.25;;;5.50;;
23060;SDS011;11698;47.690;9.132;2023-06-22T03:42:46;10.70;;;5.13;;
23060;SDS011;11698;47.690;9.132;2023-06-22T03:45:12;12.07;;;5.55;;
23060;SDS011;11698;47.690;9.132;2023-06-22T03:47:38;10.45;;;5.40;;
23060;SDS011;11698;47.690;9.132;2023-06-22T03:50:04;9.18;;;5.55;;
23060;SDS011;11698;47.690;9.132;2023-06-22T03:52:31;9.48;;;5.40;;
23060;SDS011;11698;47.690;9.132;2023-06-22T03:54:57;8.93;;;5.20;;
23060;SDS011;11698;47.690;9.132;2023-06-22T03:57:23;13.98;;;5.65;;
23060;SDS011;11698;47.690;9.132;2023-06-22T03:59:49;11.80;;;5.55;;
23060;SDS011;11698;47.690;9.132;2023-06-22T04:02:15;10.27;;;5.97;;
23060;SDS011;11698;47.690;9.132;2023-06-22T04:04:41;12.48;;;5.70;;
23060;SDS011;11698;47.690;9.132;2023-06-22T04:07:07;13.48;;;5.90;;
23060;SDS011;11698;47.690;9.132;2023-06-22T04:09:33;11.48;;;5.95;;
23060;SDS011;11698;47.690;9.132;2023-06-22T04:12:00;10.00;;;5.60;;
23060;SDS011;11698;47.690;9.132;2023-06-22T04:14:26;9.30;;;5.68;;
23060;SDS011;11698;47.690;9.132;2023-06-22T04:16:52;10.90;;;5.93;;
23060;SDS011;11698;47.690;9.132;2023-06-22T04:19:18;11.93;;;5.85;;
23060;SDS011;11698;47.690;9.132;2023-06-22T04:21:44;9.57;;;5.85;;
23060;SDS011;11698;47.690;9.132;2023-06-22T04:24:13;9.25;;;6.05;;
23060;SDS011;11698;47.690;9.132;2023-06-22T04:26:39;11.60;;;6.20;;
23060;SDS011;11698;47.690;9.132;2023-06-22T04:29:07;13.77;;;6.30;;
23060;SDS011;11698;47.690;9.132;2023-06-22T04:31:36;12.60;;;6.20;;
23060;SDS011;11698;47.690;9.132;2023-06-22T04:34:06;14.32;;;6.20;;
23060;SDS011;11698;47.690;9.132;2023-06-22T04:36:41;12.85;;;6.60;;
23060;SDS011;11698;47.690;9.132;2023-06-22T04:39:07;12.60;;;6.75;;
23060;SDS011;11698;47.690;9.132;2023-06-22T04:41:35;11.60;;;6.73;;
23060;SDS011;11698;47.690;9.132;2023-06-22T04:44:08;13.50;;;6.97;;
23060;SDS011;11698;47.690;9.132;2023-06-22T04:46:34;13.73;;;6.57;;
23060;SDS011;11698;47.690;9.132;2023-06-22T04:49:03;12.02;;;7.50;;
23060;SDS011;11698;47.690;9.132;2023-06-22T04:51:31;12.27;;;7.13;;
23060;SDS011;11698;47.690;9.132;2023-06-22T04:53:57;13.68;;;6.72;;
23060;SDS011;11698;47.690;9.132;2023-06-22T04:56:26;13.43;;;7.40;;
23060;SDS011;11698;47.690;9.132;2023-06-22T04:58:55;13.63;;;7.15;;
23060;SDS011;11698;47.690;9.132;2023-06-22T05:01:22;14.70;;;7.40;;
23060;SDS011;11698;47.690;9.132;2023-06-22T05:03:48;13.63;;;7.70;;
23060;SDS011;11698;47.690;9.132;2023-06-22T05:06:14;12.68;;;6.95;;
23060;SDS011;11698;47.690;9.132;2023-06-22T05:08:41;14.93;;;7.45;;
23060;SDS011;11698;47.690;9.132;2023-06-22T05:11:07;12.43;;;7.57;;
23060;SDS011;11698;47.690;9.132;2023-06-22T05:13:33;15.18;;;8.20;;
23060;SDS011;11698;47.690;9.132;2023-06-22T05:15:59;13.40;;;7.97;;
23060;SDS011;11698;47.690;9.132;2023-06-22T05:18:28;13.63;;;7.50;;
23060;SDS011;11698;47.690;9.132;2023-06-22T05:20:54;13.60;;;7.50;;
23060;SDS011;11698;47.690;9.132;2023-06-22T05:23:20;13.18;;;7.43;;
23060;SDS011;11698;47.690;9.132;2023-06-22T05:25:46;11.93;;;7.50;;
23060;SDS011;11698;47.690;9.132;2023-06-22T05:28:12;11.43;;;7.25;;
23060;SDS011;11698;47.690;9.132;2023-06-22T05:30:38;13.70;;;6.93;;
23060;SDS011;11698;47.690;9.132;2023-06-22T05:33:04;14.13;;;7.13;;
23060;SDS011;11698;47.690;9.132;2023-06-22T05:35:31;11.32;;;7.10;;
23060;SDS011;11698;47.690;9.132;2023-06-22T05:37:57;12.77;;;6.93;;
23060;SDS011;11698;47.690;9.132;2023-06-22T05:40:23;12.73;;;6.75;;
23060;SDS011;11698;47.690;9.132;2023-06-22T05:42:49;12.13;;;6.97;;
23060;SDS011;11698;47.690;9.132;2023-06-22T05:45:15;10.50;;;7.20;;
23060;SDS011;11698;47.690;9.132;2023-06-22T05:47:41;13.53;;;7.07;;
23060;SDS011;11698;47.690;9.132;2023-06-22T05:50:07;11.02;;;6.63;;
23060;SDS011;11698;47.690;9.132;2023-06-22T05:52:33;12.20;;;7.32;;
23060;SDS011;11698;47.690;9.132;2023-06-22T05:55:00;11.20;;;6.88;;
23060;SDS011;11698;47.690;9.132;2023-06-22T05:57:26;11.18;;;7.03;;
23060;SDS011;11698;47.690;9.132;2023-06-22T05:59:52;13.73;;;7.18;;
23060;SDS011;11698;47.690;9.132;2023-06-22T06:02:19;13.23;;;7.27;;
23060;SDS011;11698;47.690;9.132;2023-06-22T06:04:45;15.60;;;7.18;;
23060;SDS011;11698;47.690;9.132;2023-06-22T06:07:11;14.07;;;7.18;;
23060;SDS011;11698;47.690;9.132;2023-06-22T06:09:37;12.07;;;6.65;;
23060;SDS011;11698;47.690;9.132;2023-06-22T06:12:03;10.73;;;6.65;;
23060;SDS011;11698;47.690;9.132;2023-06-22T06:14:29;12.57;;;6.80;;
23060;SDS011;11698;47.690;9.132;2023-06-22T06:16:55;13.40;;;7.50;;
23060;SDS011;11698;47.690;9.132;2023-06-22T06:19:21;12.23;;;6.68;;
23060;SDS011;11698;47.690;9.132;2023-06-22T06:21:47;11.57;;;6.85;;
23060;SDS011;11698;47.690;9.132;2023-06-22T06:24:13;12.80;;;6.43;;
23060;SDS011;11698;47.690;9.132;2023-06-22T06:26:39;10.65;;;6.50;;
23060;SDS011;11698;47.690;9.132;2023-06-22T06:29:05;12.90;;;6.60;;
23060;SDS011;11698;47.690;9.132;2023-06-22T06:31:31;12.60;;;6.72;;
23060;SDS011;11698;47.690;9.132;2023-06-22T06:33:57;12.88;;;7.07;;
23060;SDS011;11698;47.690;9.132;2023-06-22T06:36:23;12.60;;;7.00;;
23060;SDS011;11698;47.690;9.132;2023-06-22T06:38:49;11.13;;;6.90;;
23060;SDS011;11698;47.690;9.132;2023-06-22T06:41:15;13.30;;;6.63;;
23060;SDS011;11698;47.690;9.132;2023-06-22T06:43:41;14.43;;;7.25;;
23060;SDS011;11698;47.690;9.132;2023-06-22T06:46:08;13.07;;;7.20;;
23060;SDS011;11698;47.690;9.132;2023-06-22T06:48:34;11.48;;;6.72;;
23060;SDS011;11698;47.690;9.132;2023-06-22T06:51:00;12.80;;;6.63;;
23060;SDS011;11698;47.690;9.132;2023-06-22T06:53:26;10.80;;;6.43;;
23060;SDS011;11698;47.690;9.132;2023-06-22T06:55:53;11.13;;;6.30;;
23060;SDS011;11698;47.690;9.132;2023-06-22T06:58:19;13.00;;;7.00;;
23060;SDS011;11698;47.690;9.132;2023-06-22T07:00:45;11.60;;;7.13;;
23060;SDS011;11698;47.690;9.132;2023-06-22T07:03:12;9.52;;;6.13;;
23060;SDS011;11698;47.690;9.132;2023-06-22T07:05:38;11.27;;;5.88;;
23060;SDS011;11698;47.690;9.132;2023-06-22T07:08:04;10.68;;;6.38;;
23060;SDS011;11698;47.690;9.132;2023-06-22T07:10:30;10.27;;;7.07;;
23060;SDS011;11698;47.690;9.132;2023-06-22T07:12:56;12.85;;;6.88;;
23060;SDS011;11698;47.690;9.132;2023-06-22T07:15:22;13.07;;;6.47;;
23060;SDS011;11698;47.690;9.132;2023-06-22T07:17:48;11.30;;;6.50;;
23060;SDS011;11698;47.690;9.132;2023-06-22T07:20:14;11.43;;;5.65;;
23060;SDS011;11698;47.690;9.132;2023-06-22T07:22:41;13.15;;;6.40;;
23060;SDS011;11698;47.690;9.132;2023-06-22T07:25:07;10.27;;;6.07;;
23060;SDS011;11698;47.690;9.132;2023-06-22T07:27:39;13.57;;;6.97;;
23060;SDS011;11698;47.690;9.132;2023-06-22T07:30:07;11.50;;;6.57;;
23060;SDS011;11698;47.690;9.132;2023-06-22T07:32:34;12.20;;;6.97;;
23060;SDS011;11698;47.690;9.132;2023-06-22T07:35:00;12.82;;;7.00;;
23060;SDS011;11698;47.690;9.132;2023-06-22T07:37:27;10.73;;;6.37;;
23060;SDS011;11698;47.690;9.132;2023-06-22T07:39:54;13.00;;;6.78;;
23060;SDS011;11698;47.690;9.132;2023-06-22T07:42:23;11.65;;;6.60;;
23060;SDS011;11698;47.690;9.132;2023-06-22T07:44:49;14.07;;;7.00;;
23060;SDS011;11698;47.690;9.132;2023-06-22T07:47:16;11.27;;;6.63;;
23060;SDS011;11698;47.690;9.132;2023-06-22T07:49:47;13.00;;;7.30;;
23060;SDS011;11698;47.690;9.132;2023-06-22T07:52:13;11.75;;;6.78;;
23060;SDS011;11698;47.690;9.132;2023-06-22T07:54:39;11.63;;;6.47;;
23060;SDS011;11698;47.690;9.132;2023-06-22T07:57:05;11.38;;;6.35;;
23060;SDS011;11698;47.690;9.132;2023-06-22T07:59:32;12.17;;;6.87;;
23060;SDS011;11698;47.690;9.132;2023-06-22T08:01:58;11.82;;;6.90;;
23060;SDS011;11698;47.690;9.132;2023-06-22T08:04:24;14.13;;;7.27;;
23060;SDS011;11698;47.690;9.132;2023-06-22T08:06:52;11.75;;;6.53;;
23060;SDS011;11698;47.690;9.132;2023-06-22T08:09:18;9.35;;;6.18;;
23060;SDS011;11698;47.690;9.132;2023-06-22T08:11:45;13.00;;;6.90;;
23060;SDS011;11698;47.690;9.132;2023-06-22T08:14:11;12.15;;;6.47;;
23060;SDS011;11698;47.690;9.132;2023-06-22T08:16:36;11.80;;;7.10;;
23060;SDS011;11698;47.690;9.132;2023-06-22T08:19:02;12.70;;;6.20;;
23060;SDS011;11698;47.690;9.132;2023-06-22T08:21:28;11.20;;;6.53;;
23060;SDS011;11698;47.690;9.132;2023-06-22T08:23:54;12.55;;;6.57;;
23060;SDS011;11698;47.690;9.132;2023-06-22T08:26:20;13.98;;;6.28;;
23060;SDS011;11698;47.690;9.132;2023-06-22T08:28:46;11.07;;;5.93;;
23060;SDS011;11698;47.690;9.132;2023-06-22T08:31:12;13.43;;;7.20;;
23060;SDS011;11698;47.690;9.132;2023-06-22T08:33:39;12.60;;;6.55;;
23060;SDS011;11698;47.690;9.132;2023-06-22T08:36:05;11.05;;;6.75;;
23060;SDS011;11698;47.690;9.132;2023-06-22T08:38:33;16.58;;;7.60;;
23060;SDS011;11698;47.690;9.132;2023-06-22T08:40:59;11.10;;;7.10;;
23060;SDS011;11698;47.690;9.132;2023-06-22T08:43:25;11.70;;;6.37;;
23060;SDS011;11698;47.690;9.132;2023-06-22T08:45:51;12.27;;;6.35;;
23060;SDS011;11698;47.690;9.132;2023-06-22T08:48:17;12.07;;;6.75;;
23060;SDS011;11698;47.690;9.132;2023-06-22T08:50:43;11.70;;;6.35;;
23060;SDS011;11698;47.690;9.132;2023-06-22T08:53:09;13.57;;;7.82;;
23060;SDS011;11698;47.690;9.132;2023-06-22T08:55:35;13.00;;;7.65;;
23060;SDS011;11698;47.690;9.132;2023-06-22T08:58:01;9.85;;;6.80;;
23060;SDS011;11698;47.690;9.132;2023-06-22T09:00:28;11.13;;;7.17;;
23060;SDS011;11698;47.690;9.132;2023-06-22T09:02:59;12.75;;;6.82;;
23060;SDS011;11698;47.690;9.132;2023-06-22T09:05:25;11.52;;;6.68;;
23060;SDS011;11698;47.690;9.132;2023-06-22T09:07:51;12.87;;;7.43;;
23060;SDS011;11698;47.690;9.132;2023-06-22T09:10:19;12.75;;;7.85;;
23060;SDS011;11698;47.690;9.132;2023-06-22T09:12:45;11.32;;;7.35;;
23060;SDS011;11698;47.690;9.132;2023-06-22T09:15:11;15.00;;;8.45;;
23060;SDS011;11698;47.690;9.132;2023-06-22T09:17:37;12.77;;;7.37;;
23060;SDS011;11698;47.690;9.132;2023-06-22T09:20:04;12.33;;;7.63;;
23060;SDS011;11698;47.690;9.132;2023-06-22T09:22:31;15.00;;;8.63;;
23060;SDS011;11698;47.690;9.132;2023-06-22T09:24:58;14.25;;;8.02;;
23060;SDS011;11698;47.690;9.132;2023-06-22T09:27:24;15.70;;;7.45;;
23060;SDS011;11698;47.690;9.132;2023-06-22T09:29:51;12.93;;;7.37;;
23060;SDS011;11698;47.690;9.132;2023-06-22T09:32:17;10.23;;;7.38;;
23060;SDS011;11698;47.690;9.132;2023-06-22T09:34:43;11.80;;;7.25;;
23060;SDS011;11698;47.690;9.132;2023-06-22T09:37:09;12.32;;;6.95;;
23060;SDS011;11698;47.690;9.132;2023-06-22T09:39:35;15.38;;;7.13;;
23060;SDS011;11698;47.690;9.132;2023-06-22T09:42:01;12.90;;;7.13;;
23060;SDS011;11698;47.690;9.132;2023-06-22T09:44:27;12.18;;;6.90;;
23060;SDS011;11698;47.690;9.132;2023-06-22T09:46:53;11.25;;;6.57;;
23060;SDS011;11698;47.690;9.132;2023-06-22T09:49:19;13.88;;;6.80;;
23060;SDS011;11698;47.690;9.132;2023-06-22T09:51:45;14.38;;;7.75;;
23060;SDS011;11698;47.690;9.132;2023-06-22T09:54:11;13.27;;;6.85;;
23060;SDS011;11698;47.690;9.132;2023-06-22T09:56:37;15.05;;;7.55;;
23060;SDS011;11698;47.690;9.132;2023-06-22T09:59:03;12.90;;;7.43;;
23060;SDS011;11698;47.690;9.132;2023-06-22T10:01:29;13.48;;;6.57;;
23060;SDS011;11698;47.690;9.132;2023-06-22T10:03:55;15.75;;;7.13;;
23060;SDS011;11698;47.690;9.132;2023-06-22T10:06:22;12.77;;;6.47;;
23060;SDS011;11698;47.690;9.132;2023-06-22T10:08:50;13.35;;;7.30;;
23060;SDS011;11698;47.690;9.132;2023-06-22T10:11:16;12.53;;;6.70;;
23060;SDS011;11698;47.690;9.132;2023-06-22T10:13:42;13.40;;;6.60;;
23060;SDS011;11698;47.690;9.132;2023-06-22T10:16:08;13.50;;;6.82;;
23060;SDS011;11698;47.690;9.132;2023-06-22T10:18:34;11.43;;;6.20;;
23060;SDS011;11698;47.690;9.132;2023-06-22T10:21:00;11.48;;;6.60;;
23060;SDS011;11698;47.690;9.132;2023-06-22T10:23:26;12.05;;;6.85;;
23060;SDS011;11698;47.690;9.132;2023-06-22T10:25:52;13.43;;;7.28;;
23060;SDS011;11698;47.690;9.132;2023-06-22T10:28:18;13.45;;;6.20;;
23060;SDS011;11698;47.690;9.132;2023-06-22T10:30:44;12.07;;;6.88;;
23060;SDS011;11698;47.690;9.132;2023-06-22T10:33:11;13.25;;;6.80;;
23060;SDS011;11698;47.690;9.132;2023-06-22T10:35:37;10.52;;;6.60;;
23060;SDS011;11698;47.690;9.132;2023-06-22T10:38:03;11.25;;;6.78;;
23060;SDS011;11698;47.690;9.132;2023-06-22T10:40:30;11.85;;;7.28;;
23060;SDS011;11698;47.690;9.132;2023-06-22T10:42:56;14.02;;;6.82;;
23060;SDS011;11698;47.690;9.132;2023-06-22T10:45:22;11.73;;;6.13;;
23060;SDS011;11698;47.690;9.132;2023-06-22T10:47:48;13.23;;;6.93;;
23060;SDS011;11698;47.690;9.132;2023-06-22T10:50:14;10.02;;;6.63;;
23060;SDS011;11698;47.690;9.132;2023-06-22T10:52:40;11.85;;;6.25;;
23060;SDS011;11698;47.690;9.132;2023-06-22T10:55:09;9.95;;;6.68;;
23060;SDS011;11698;47.690;9.132;2023-06-22T10:57:35;12.40;;;7.00;;
23060;SDS011;11698;47.690;9.132;2023-06-22T11:00:02;12.17;;;6.97;;
23060;SDS011;11698;47.690;9.132;2023-06-22T11:02:30;12.07;;;6.35;;
23060;SDS011;11698;47.690;9.132;2023-06-22T11:04:56;12.73;;;6.70;;
23060;SDS011;11698;47.690;9.132;2023-06-22T11:07:25;11.15;;;6.20;;
23060;SDS011;11698;47.690;9.132;2023-06-22T11:09:53;14.02;;;6.75;;
23060;SDS011;11698;47.690;9.132;2023-06-22T11:12:19;13.20;;;8.05;;
23060;SDS011;11698;47.690;9.132;2023-06-22T11:14:45;13.15;;;6.15;;
23060;SDS011;11698;47.690;9.132;2023-06-22T11:17:11;11.00;;;6.22;;
23060;SDS011;11698;47.690;9.132;2023-06-22T11:19:37;12.98;;;6.22;;
23060;SDS011;11698;47.690;9.132;2023-06-22T11:22:03;12.82;;;6.45;;
23060;SDS011;11698;47.690;9.132;2023-06-22T11:27:33;13.25;;;6.90;;
23060;SDS011;11698;47.690;9.132;2023-06-22T11:29:59;16.67;;;7.27;;
23060;SDS011;11698;47.690;9.132;2023-06-22T11:32:25;14.38;;;7.68;;
23060;SDS011;11698;47.690;9.132;2023-06-22T11:34:51;12.77;;;7.60;;
23060;SDS011;11698;47.690;9.132;2023-06-22T11:37:17;13.37;;;6.87;;
23060;SDS011;11698;47.690;9.132;2023-06-22T11:39:43;10.07;;;6.05;;
23060;SDS011;11698;47.690;9.132;2023-06-22T11:42:10;10.93;;;6.43;;
23060;SDS011;11698;47.690;9.132;2023-06-22T11:44:36;11.40;;;6.75;;
23060;SDS011;11698;47.690;9.132;2023-06-22T11:47:02;11.43;;;6.93;;
23060;SDS011;11698;47.690;9.132;2023-06-22T11:49:32;14.55;;;6.32;;
23060;SDS011;11698;47.690;9.132;2023-06-22T11:51:58;11.20;;;6.28;;
23060;SDS011;11698;47.690;9.132;2023-06-22T11:54:24;9.97;;;6.07;;
23060;SDS011;11698;47.690;9.132;2023-06-22T11:56:50;11.93;;;6.40;;
23060;SDS011;11698;47.690;9.132;2023-06-22T11:59:16;12.95;;;6.65;;
23060;SDS011;11698;47.690;9.132;2023-06-22T12:01:42;12.32;;;7.00;;
23060;SDS011;11698;47.690;9.132;2023-06-22T12:04:08;11.88;;;6.10;;
23060;SDS011;11698;47.690;9.132;2023-06-22T12:06:37;11.03;;;6.70;;
23060;SDS011;11698;47.690;9.132;2023-06-22T12:09:03;13.40;;;6.63;;
23060;SDS011;11698;47.690;9.132;2023-06-22T12:11:30;11.75;;;6.55;;
23060;SDS011;11698;47.690;9.132;2023-06-22T12:13:56;11.95;;;6.32;;
23060;SDS011;11698;47.690;9.132;2023-06-22T12:16:26;14.05;;;6.70;;
23060;SDS011;11698;47.690;9.132;2023-06-22T12:18:52;14.10;;;7.50;;
23060;SDS011;11698;47.690;9.132;2023-06-22T12:21:18;13.23;;;6.55;;
23060;SDS011;11698;47.690;9.132;2023-06-22T12:23:44;13.93;;;6.90;;
23060;SDS011;11698;47.690;9.132;2023-06-22T12:26:10;11.95;;;6.60;;
23060;SDS011;11698;47.690;9.132;2023-06-22T12:28:36;12.23;;;6.22;;
23060;SDS011;11698;47.690;9.132;2023-06-22T12:31:02;11.27;;;7.00;;
23060;SDS011;11698;47.690;9.132;2023-06-22T12:33:29;9.35;;;6.43;;
23060;SDS011;11698;47.690;9.132;2023-06-22T12:35:55;11.30;;;5.97;;
23060;SDS011;11698;47.690;9.132;2023-06-22T12:38:21;12.40;;;6.95;;
23060;SDS011;11698;47.690;9.132;2023-06-22T12:40:49;12.70;;;7.25;;
23060;SDS011;11698;47.690;9.132;2023-06-22T12:43:15;12.70;;;6.45;;
23060;SDS011;11698;47.690;9.132;2023-06-22T12:45:41;12.82;;;6.40;;
23060;SDS011;11698;47.690;9.132;2023-06-22T12:48:07;11.93;;;6.13;;
23060;SDS011;11698;47.690;9.132;2023-06-22T12:50:33;12.95;;;6.47;;
23060;SDS011;11698;47.690;9.132;2023-06-22T12:52:59;11.00;;;6.17;;
23060;SDS011;11698;47.690;9.132;2023-06-22T12:55:27;15.55;;;6.60;;
23060;SDS011;11698;47.690;9.132;2023-06-22T12:57:53;10.98;;;6.22;;
23060;SDS011;11698;47.690;9.132;2023-06-22T13:00:19;11.88;;;6.03;;
23060;SDS011;11698;47.690;9.132;2023-06-22T13:02:45;11.45;;;5.72;;
23060;SDS011;11698;47.690;9.132;2023-06-22T13:05:11;10.73;;;5.93;;
23060;SDS011;11698;47.690;9.132;2023-06-22T13:07:39;11.57;;;6.47;;
23060;SDS011;11698;47.690;9.132;2023-06-22T13:10:07;9.35;;;6.32;;
23060;SDS011;11698;47.690;9.132;2023-06-22T13:12:33;10.20;;;6.53;;
23060;SDS011;11698;47.690;9.132;2023-06-22T13:14:59;11.40;;;6.22;;
23060;SDS011;11698;47.690;9.132;2023-06-22T13:17:25;10.82;;;6.32;;
23060;SDS011;11698;47.690;9.132;2023-06-22T13:19:51;10.15;;;5.78;;
23060;SDS011;11698;47.690;9.132;2023-06-22T13:22:30;9.65;;;5.60;;
23060;SDS011;11698;47.690;9.132;2023-06-22T13:24:56;10.00;;;6.10;;
23060;SDS011;11698;47.690;9.132;2023-06-22T13:27:23;14.07;;;6.80;;
23060;SDS011;11698;47.690;9.132;2023-06-22T13:29:49;12.80;;;6.35;;
23060;SDS011;11698;47.690;9.132;2023-06-22T13:32:15;11.52;;;6.35;;
23060;SDS011;11698;47.690;9.132;2023-06-22T13:34:41;12.65;;;6.40;;
23060;SDS011;11698;47.690;9.132;2023-06-22T13:37:07;12.00;;;5.95;;
23060;SDS011;11698;47.690;9.132;2023-06-22T13:39:33;10.13;;;5.90;;
23060;SDS011;11698;47.690;9.132;2023-06-22T13:41:59;12.68;;;6.03;;
23060;SDS011;11698;47.690;9.132;2023-06-22T13:44:25;9.48;;;6.00;;
23060;SDS011;11698;47.690;9.132;2023-06-22T13:46:54;9.70;;;6.50;;
23060;SDS011;11698;47.690;9.132;2023-06-22T13:49:20;12.83;;;6.00;;
23060;SDS011;11698;47.690;9.132;2023-06-22T13:51:46;10.90;;;6.20;;
23060;SDS011;11698;47.690;9.132;2023-06-22T13:54:14;10.00;;;5.70;;
23060;SDS011;11698;47.690;9.132;2023-06-22T13:56:40;11.85;;;5.72;;
23060;SDS011;11698;47.690;9.132;2023-06-22T13:59:06;14.30;;;6.40;;
23060;SDS011;11698;47.690;9.132;2023-06-22T14:01:34;10.17;;;5.90;;
23060;SDS011;11698;47.690;9.132;2023-06-22T14:04:00;11.57;;;6.32;;
23060;SDS011;11698;47.690;9.132;2023-06-22T14:06:27;11.63;;;6.00;;
23060;SDS011;11698;47.690;9.132;2023-06-22T14:08:53;11.73;;;5.85;;
23060;SDS011;11698;47.690;9.132;2023-06-22T14:11:19;13.27;;;5.68;;
23060;SDS011;11698;47.690;9.132;2023-06-22T14:13:45;11.83;;;5.67;;
23060;SDS011;11698;47.690;9.132;2023-06-22T14:16:11;10.47;;;5.10;;
23060;SDS011;11698;47.690;9.132;2023-06-22T14:18:37;9.97;;;4.43;;
23060;SDS011;11698;47.690;9.132;2023-06-22T14:21:03;10.93;;;4.13;;
23060;SDS011;11698;47.690;9.132;2023-06-22T14:23:29;8.60;;;3.85;;
23060;SDS011;11698;47.690;9.132;2023-06-22T14:25:55;12.32;;;4.05;;
23060;SDS011;11698;47.690;9.132;2023-06-22T14:28:21;8.80;;;3.78;;
23060;SDS011;11698;47.690;9.132;2023-06-22T14:30:47;9.55;;;3.58;;
23060;SDS011;11698;47.690;9.132;2023-06-22T14:33:13;9.55;;;3.78;;
23060;SDS011;11698;47.690;9.132;2023-06-22T14:35:39;10.60;;;3.67;;
23060;SDS011;11698;47.690;9.132;2023-06-22T14:38:06;10.87;;;3.80;;
23060;SDS011;11698;47.690;9.132;2023-06-22T14:40:32;10.80;;;4.22;;
23060;SDS011;11698;47.690;9.132;2023-06-22T14:42:58;9.83;;;3.70;;
23060;SDS011;11698;47.690;9.132;2023-06-22T14:45:24;9.52;;;3.35;;